Time;durP1;ratioP1;P1;durP2;ratioP2;P2;SDS_P1;SDS_P2;PMS_P1;PMS_P2;Temp;Humidity;BMP_temperature;BMP_pressure;BME280_temperature;BME280_humidity;BME280_pressure;Samples;Min_cycle;Max_cycle;Signal;HPM_P1;HPM_P2
2023/05/09 00:00:46;;;;;;;37.15;22.45;;;;;;;;;;4983872;28;20054;-86
2023/05/09 00:03:13;;;;;;;35.78;21.30;;;;;;;;;;4983026;28;20038;-84
2023/05/09 00:05:39;;;;;;;34.35;20.42;;;;;;;;;;4987997;28;20499;-87
2023/05/09 00:08:05;;;;;;;32.17;21.15;;;;;;;;;;4981498;28;20046;-83
2023/05/09 00:10:31;;;;;;;33.78;21.25;;;;;;;;;;4980230;28;20034;-85
2023/05/09 00:12:58;;;;;;;36.08;21.52;;;;;;;;;;4980511;28;20601;-84
2023/05/09 00:15:24;;;;;;;41.95;21.75;;;;;;;;;;4985770;28;20045;-84
2023/05/09 00:17:50;;;;;;;38.53;22.40;;;;;;;;;;4983532;28;20073;-84
2023/05/09 00:20:17;;;;;;;38.17;22.85;;;;;;;;;;4970060;28;21063;-86
2023/05/09 00:22:43;;;;;;;36.80;21.25;;;;;;;;;;4966234;28;20041;-83
2023/05/09 00:25:09;;;;;;;34.95;21.48;;;;;;;;;;4966774;28;20034;-83
2023/05/09 00:27:35;;;;;;;38.45;23.17;;;;;;;;;;4982235;28;20053;-86
2023/05/09 00:30:01;;;;;;;39.53;21.90;;;;;;;;;;4986024;28;20035;-87
2023/05/09 00:32:28;;;;;;;39.28;22.15;;;;;;;;;;4983776;28;20107;-86
2023/05/09 00:34:54;;;;;;;33.08;20.38;;;;;;;;;;4970696;28;20109;-84
2023/05/09 00:37:20;;;;;;;34.30;21.85;;;;;;;;;;4985768;28;20117;-85
2023/05/09 00:39:49;;;;;;;43.00;23.05;;;;;;;;;;4987277;28;20034;-85
2023/05/09 00:42:16;;;;;;;33.08;21.80;;;;;;;;;;4982706;28;20458;-82
2023/05/09 00:44:42;;;;;;;39.90;24.02;;;;;;;;;;4983171;28;20023;-84
2023/05/09 00:47:08;;;;;;;39.17;23.15;;;;;;;;;;4967729;28;20046;-84
2023/05/09 00:49:34;;;;;;;33.92;22.30;;;;;;;;;;4986532;28;20042;-82
2023/05/09 00:52:01;;;;;;;38.33;22.52;;;;;;;;;;4983405;28;20054;-83
2023/05/09 00:54:27;;;;;;;38.47;22.67;;;;;;;;;;4986333;28;20446;-83
2023/05/09 00:56:53;;;;;;;39.30;23.63;;;;;;;;;;4985378;28;20034;-82
2023/05/09 00:59:20;;;;;;;38.75;23.52;;;;;;;;;;4985589;28;20037;-82
2023/05/09 01:01:46;;;;;;;37.15;23.67;;;;;;;;;;4983144;28;20483;-83
2023/05/09 01:04:13;;;;;;;41.72;23.92;;;;;;;;;;4986034;28;20062;-82
2023/05/09 01:06:54;;;;;;;39.15;23.75;;;;;;;;;;4987403;28;20061;-86
2023/05/09 01:09:24;;;;;;;41.67;23.13;;;;;;;;;;4985269;28;20035;-85
2023/05/09 01:11:58;;;;;;;36.92;23.23;;;;;;;;;;4990882;28;20097;-83
2023/05/09 01:14:33;;;;;;;46.28;24.92;;;;;;;;;;4970313;28;20039;-84
2023/05/09 01:17:02;;;;;;;42.92;23.10;;;;;;;;;;4984505;28;20030;-83
2023/05/09 01:19:28;;;;;;;41.92;25.50;;;;;;;;;;4986792;28;20635;-82
2023/05/09 01:21:56;;;;;;;44.45;25.70;;;;;;;;;;4985971;28;20125;-82
2023/05/09 01:24:33;;;;;;;43.17;26.08;;;;;;;;;;4980462;28;20034;-83
2023/05/09 01:27:02;;;;;;;37.92;22.83;;;;;;;;;;4970956;28;20415;-83
2023/05/09 01:29:31;;;;;;;48.13;26.48;;;;;;;;;;4980437;28;20026;-82
2023/05/09 01:31:58;;;;;;;46.00;25.90;;;;;;;;;;4989804;28;20129;-83
2023/05/09 01:34:26;;;;;;;45.67;26.27;;;;;;;;;;4983327;28;20074;-86
2023/05/09 01:36:54;;;;;;;44.30;25.20;;;;;;;;;;4965274;28;20150;-83
2023/05/09 01:39:21;;;;;;;43.97;24.77;;;;;;;;;;4965336;28;20149;-87
2023/05/09 01:41:48;;;;;;;39.30;24.08;;;;;;;;;;4948409;28;20043;-84
2023/05/09 01:44:15;;;;;;;44.63;25.95;;;;;;;;;;4948317;28;20034;-84
2023/05/09 01:46:41;;;;;;;44.05;26.75;;;;;;;;;;4969834;28;20037;-84
2023/05/09 01:49:08;;;;;;;51.25;27.42;;;;;;;;;;4967262;28;20042;-83
2023/05/09 01:51:36;;;;;;;44.25;26.38;;;;;;;;;;4965604;28;20496;-85
2023/05/09 01:54:03;;;;;;;46.17;26.58;;;;;;;;;;4961217;28;20046;-85
2023/05/09 01:56:30;;;;;;;50.05;27.38;;;;;;;;;;4953763;28;20117;-84
2023/05/09 01:58:57;;;;;;;48.92;26.80;;;;;;;;;;4965390;28;20042;-83
2023/05/09 02:01:23;;;;;;;44.60;24.77;;;;;;;;;;4965119;28;20046;-83
2023/05/09 02:03:54;;;;;;;48.35;25.88;;;;;;;;;;4966355;28;20039;-84
2023/05/09 02:06:21;;;;;;;49.17;27.40;;;;;;;;;;4965880;28;20499;-83
2023/05/09 02:08:47;;;;;;;46.85;26.50;;;;;;;;;;4966172;28;20102;-83
2023/05/09 02:11:13;;;;;;;46.25;28.58;;;;;;;;;;4950154;28;20022;-83
2023/05/09 02:13:40;;;;;;;53.95;30.00;;;;;;;;;;4965474;28;20046;-85
2023/05/09 02:16:06;;;;;;;53.53;29.02;;;;;;;;;;4966240;28;20118;-86
2023/05/09 02:18:34;;;;;;;52.75;29.52;;;;;;;;;;4963073;28;20038;-85
2023/05/09 02:21:00;;;;;;;48.22;28.58;;;;;;;;;;4962107;28;20297;-83
2023/05/09 02:23:26;;;;;;;50.90;28.30;;;;;;;;;;4965571;28;20476;-79
2023/05/09 02:25:53;;;;;;;46.72;26.80;;;;;;;;;;4964112;28;20032;-80
2023/05/09 02:28:22;;;;;;;50.97;29.40;;;;;;;;;;4949678;28;20038;-79
2023/05/09 02:30:48;;;;;;;55.20;30.25;;;;;;;;;;4965930;28;20081;-85
2023/05/09 02:33:15;;;;;;;51.78;27.98;;;;;;;;;;4963470;28;20081;-82
2023/05/09 02:35:42;;;;;;;53.45;30.67;;;;;;;;;;4970650;28;20074;-81
2023/05/09 02:38:08;;;;;;;53.55;29.02;;;;;;;;;;4981330;28;20023;-81
2023/05/09 02:40:34;;;;;;;51.20;28.27;;;;;;;;;;4982628;28;20113;-85
2023/05/09 02:43:00;;;;;;;60.17;31.85;;;;;;;;;;4983636;28;20042;-85
2023/05/09 02:45:26;;;;;;;59.15;30.48;;;;;;;;;;4986467;28;20080;-83
2023/05/09 02:47:52;;;;;;;63.80;34.28;;;;;;;;;;4983014;28;20309;-82
2023/05/09 02:50:18;;;;;;;63.42;33.53;;;;;;;;;;4985190;28;20134;-79
2023/05/09 02:52:44;;;;;;;56.28;31.45;;;;;;;;;;4983400;28;20034;-84
2023/05/09 02:55:10;;;;;;;66.68;33.38;;;;;;;;;;4983354;28;20026;-82
2023/05/09 02:57:36;;;;;;;60.35;32.72;;;;;;;;;;4983376;28;20044;-84
2023/05/09 03:00:03;;;;;;;60.80;33.83;;;;;;;;;;4985689;28;20618;-84
2023/05/09 03:02:29;;;;;;;64.60;32.92;;;;;;;;;;4982561;28;20386;-83
2023/05/09 03:04:58;;;;;;;68.22;32.35;;;;;;;;;;4984963;28;20039;-83
2023/05/09 03:07:24;;;;;;;65.00;34.55;;;;;;;;;;4983687;28;20486;-85
2023/05/09 03:09:50;;;;;;;65.13;34.95;;;;;;;;;;4985530;28;20212;-84
2023/05/09 03:12:16;;;;;;;67.75;33.97;;;;;;;;;;4984093;28;20042;-79
2023/05/09 03:14:42;;;;;;;58.63;31.63;;;;;;;;;;4983408;28;20045;-83
2023/05/09 03:17:08;;;;;;;66.22;34.53;;;;;;;;;;4983357;28;20034;-83
2023/05/09 03:19:34;;;;;;;54.75;31.05;;;;;;;;;;4966828;28;20034;-84
2023/05/09 03:22:00;;;;;;;69.70;35.80;;;;;;;;;;4985534;28;20419;-81
2023/05/09 03:24:29;;;;;;;59.78;33.88;;;;;;;;;;4983275;28;20037;-83
2023/05/09 03:26:55;;;;;;;67.72;34.65;;;;;;;;;;4968764;28;20030;-84
2023/05/09 03:29:21;;;;;;;64.22;33.75;;;;;;;;;;4984602;28;20045;-84
2023/05/09 03:31:47;;;;;;;61.13;33.17;;;;;;;;;;4971016;28;20049;-85
2023/05/09 03:34:13;;;;;;;69.57;35.17;;;;;;;;;;4980205;28;20106;-83
2023/05/09 03:36:42;;;;;;;63.28;33.58;;;;;;;;;;4985280;28;20317;-83
2023/05/09 03:39:09;;;;;;;64.18;33.95;;;;;;;;;;4984863;28;20023;-82
2023/05/09 03:41:35;;;;;;;67.15;34.70;;;;;;;;;;4984624;28;20022;-86
2023/05/09 03:44:02;;;;;;;65.68;34.47;;;;;;;;;;4980817;28;20042;-83
2023/05/09 03:46:28;;;;;;;62.88;32.60;;;;;;;;;;4987748;28;20026;-84
2023/05/09 03:48:54;;;;;;;61.58;33.03;;;;;;;;;;4983452;28;20045;-82
2023/05/09 03:51:20;;;;;;;61.53;33.05;;;;;;;;;;4982462;28;20038;-83
2023/05/09 03:53:47;;;;;;;69.07;35.55;;;;;;;;;;4986885;28;20042;-82
2023/05/09 03:56:13;;;;;;;58.47;32.08;;;;;;;;;;4987350;28;20066;-81
2023/05/09 03:58:39;;;;;;;69.85;35.13;;;;;;;;;;4987096;28;20050;-85
2023/05/09 04:01:05;;;;;;;69.13;35.13;;;;;;;;;;4984893;28;20439;-82
2023/05/09 04:03:31;;;;;;;68.18;35.45;;;;;;;;;;4986719;28;20062;-86
2023/05/09 04:05:58;;;;;;;63.67;34.92;;;;;;;;;;4985159;28;20427;-83
2023/05/09 04:08:24;;;;;;;65.53;35.05;;;;;;;;;;4988062;28;20126;-84
2023/05/09 04:10:51;;;;;;;72.38;36.47;;;;;;;;;;4986437;28;20030;-85
2023/05/09 04:13:17;;;;;;;67.22;35.33;;;;;;;;;;4984899;28;20426;-83
2023/05/09 04:15:43;;;;;;;76.15;33.47;;;;;;;;;;4989297;28;20052;-84
2023/05/09 04:18:09;;;;;;;70.15;34.75;;;;;;;;;;4989799;28;20514;-79
2023/05/09 04:20:36;;;;;;;62.90;32.67;;;;;;;;;;4970805;28;20048;-86
2023/05/09 04:23:02;;;;;;;69.00;35.17;;;;;;;;;;4987983;28;20068;-83
2023/05/09 04:25:28;;;;;;;67.07;35.63;;;;;;;;;;4985438;28;20069;-82
2023/05/09 04:27:54;;;;;;;73.80;36.47;;;;;;;;;;4971407;28;20034;-85
2023/05/09 04:30:21;;;;;;;72.43;36.15;;;;;;;;;;4986983;28;20534;-80
2023/05/09 04:32:47;;;;;;;71.40;36.90;;;;;;;;;;4988495;28;20038;-85
2023/05/09 04:35:14;;;;;;;71.85;38.00;;;;;;;;;;4987407;28;20105;-80
2023/05/09 04:37:40;;;;;;;73.72;37.63;;;;;;;;;;4987402;28;20034;-83
2023/05/09 04:40:08;;;;;;;71.38;36.45;;;;;;;;;;4988566;28;20039;-86
2023/05/09 04:42:34;;;;;;;76.93;38.70;;;;;;;;;;4987366;28;20032;-84
2023/05/09 04:45:00;;;;;;;75.88;37.92;;;;;;;;;;4983622;28;20066;-83
2023/05/09 04:47:26;;;;;;;74.82;40.33;;;;;;;;;;4986502;28;20037;-83
2023/05/09 04:49:53;;;;;;;77.75;38.50;;;;;;;;;;4986068;28;20030;-85
2023/05/09 04:52:19;;;;;;;80.38;38.65;;;;;;;;;;4971486;28;20043;-84
2023/05/09 04:54:45;;;;;;;78.50;39.30;;;;;;;;;;4970658;28;20041;-80
2023/05/09 04:57:11;;;;;;;80.53;37.17;;;;;;;;;;4985820;28;20042;-83
2023/05/09 04:59:37;;;;;;;77.10;38.75;;;;;;;;;;4986790;28;20062;-87
2023/05/09 05:02:03;;;;;;;77.75;39.67;;;;;;;;;;4985049;28;20042;-87
2023/05/09 05:04:29;;;;;;;78.43;37.28;;;;;;;;;;4986884;28;20033;-83
2023/05/09 05:06:55;;;;;;;74.65;36.83;;;;;;;;;;4987087;28;20035;-80
2023/05/09 05:09:21;;;;;;;77.65;37.85;;;;;;;;;;4976473;28;20068;-81
2023/05/09 05:11:47;;;;;;;72.43;35.45;;;;;;;;;;4973580;28;20034;-83
2023/05/09 05:14:13;;;;;;;68.97;35.38;;;;;;;;;;4977451;28;20038;-81
2023/05/09 05:16:39;;;;;;;78.38;36.58;;;;;;;;;;4950054;28;20443;-81
2023/05/09 05:19:05;;;;;;;83.68;43.13;;;;;;;;;;4969217;28;20027;-82
2023/05/09 05:21:31;;;;;;;79.43;39.65;;;;;;;;;;4973588;28;20360;-77
2023/05/09 05:23:57;;;;;;;71.78;37.33;;;;;;;;;;4974613;28;20066;-77
2023/05/09 05:26:24;;;;;;;77.95;39.13;;;;;;;;;;4996181;28;20038;-80
2023/05/09 05:28:54;;;;;;;81.25;40.03;;;;;;;;;;4984643;28;20291;-79
2023/05/09 05:31:20;;;;;;;84.53;39.50;;;;;;;;;;4970362;28;20054;-79
2023/05/09 05:33:46;;;;;;;86.65;39.25;;;;;;;;;;4980093;28;20137;-85
2023/05/09 05:36:12;;;;;;;77.85;39.03;;;;;;;;;;4986528;28;20086;-84
2023/05/09 05:38:38;;;;;;;80.53;39.30;;;;;;;;;;4987777;28;20042;-88
2023/05/09 05:41:05;;;;;;;89.90;42.47;;;;;;;;;;4989279;28;20035;-78
2023/05/09 05:43:31;;;;;;;79.93;38.95;;;;;;;;;;4986381;28;20138;-85
2023/05/09 05:45:57;;;;;;;79.93;40.63;;;;;;;;;;4985189;28;21866;-87
2023/05/09 05:48:23;;;;;;;76.90;40.50;;;;;;;;;;4969224;28;20053;-84
2023/05/09 05:50:49;;;;;;;69.10;38.97;;;;;;;;;;4977131;28;20034;-83
2023/05/09 05:53:15;;;;;;;82.13;40.88;;;;;;;;;;4977615;28;20117;-88
2023/05/09 05:55:41;;;;;;;78.90;40.50;;;;;;;;;;4980462;28;20161;-84
2023/05/09 05:58:07;;;;;;;85.32;40.47;;;;;;;;;;4983352;28;20058;-84
2023/05/09 06:00:33;;;;;;;84.72;41.63;;;;;;;;;;4975981;28;20507;-73
2023/05/09 06:02:59;;;;;;;98.00;54.80;;;;;;;;;;4983865;28;20034;-81
2023/05/09 06:05:27;;;;;;;76.85;40.58;;;;;;;;;;4985042;28;20399;-81
2023/05/09 06:07:53;;;;;;;76.50;38.35;;;;;;;;;;4989559;28;20035;-81
2023/05/09 06:10:19;;;;;;;81.28;41.70;;;;;;;;;;4963035;28;20081;-84
2023/05/09 06:12:45;;;;;;;76.47;41.03;;;;;;;;;;4979925;28;20065;-82
2023/05/09 06:15:11;;;;;;;81.22;43.00;;;;;;;;;;4978121;28;20634;-85
2023/05/09 06:17:37;;;;;;;86.03;43.65;;;;;;;;;;4966372;28;20038;-83
2023/05/09 06:20:03;;;;;;;82.03;42.95;;;;;;;;;;4969004;28;20186;-83
2023/05/09 06:22:29;;;;;;;87.93;44.00;;;;;;;;;;4984335;28;20109;-87
2023/05/09 06:24:55;;;;;;;92.32;45.78;;;;;;;;;;4979064;28;20113;-86
2023/05/09 06:27:21;;;;;;;93.70;45.67;;;;;;;;;;4981052;28;20149;-81
2023/05/09 06:29:47;;;;;;;82.00;45.10;;;;;;;;;;4981008;28;20046;-86
2023/05/09 06:32:13;;;;;;;92.93;46.08;;;;;;;;;;4985084;28;20031;-83
2023/05/09 06:34:40;;;;;;;94.47;48.03;;;;;;;;;;4960886;28;20026;-83
2023/05/09 06:37:06;;;;;;;91.97;47.65;;;;;;;;;;4979819;28;20359;-84
2023/05/09 06:39:33;;;;;;;97.13;47.63;;;;;;;;;;4980703;28;20459;-79
2023/05/09 06:41:59;;;;;;;89.55;46.65;;;;;;;;;;4980840;28;20114;-84
2023/05/09 06:44:25;;;;;;;89.72;47.53;;;;;;;;;;4981153;28;20399;-87
2023/05/09 06:46:51;;;;;;;88.25;45.25;;;;;;;;;;4980887;28;20030;-87
2023/05/09 06:49:17;;;;;;;90.30;47.35;;;;;;;;;;4980581;28;20051;-85
2023/05/09 06:51:43;;;;;;;91.55;47.58;;;;;;;;;;4983384;28;20089;-86
2023/05/09 06:54:09;;;;;;;473.27;352.90;;;;;;;;;;4986526;28;20038;-83
2023/05/09 06:56:36;;;;;;;97.40;53.75;;;;;;;;;;4985023;28;20168;-82
2023/05/09 06:59:02;;;;;;;90.90;47.60;;;;;;;;;;4984297;28;20026;-81
2023/05/09 07:01:28;;;;;;;93.03;45.80;;;;;;;;;;4966579;28;20031;-83
2023/05/09 07:03:54;;;;;;;86.90;46.40;;;;;;;;;;4984935;28;20042;-83
2023/05/09 07:06:20;;;;;;;92.15;46.92;;;;;;;;;;4982195;28;20034;-84
2023/05/09 07:08:46;;;;;;;92.55;48.47;;;;;;;;;;4983257;28;20065;-84
2023/05/09 07:11:12;;;;;;;90.03;46.80;;;;;;;;;;4986352;28;20035;-84
2023/05/09 07:13:38;;;;;;;83.75;47.75;;;;;;;;;;4966620;28;20526;-83
2023/05/09 07:16:04;;;;;;;85.35;47.45;;;;;;;;;;4980034;28;20073;-81
2023/05/09 07:18:30;;;;;;;87.97;47.75;;;;;;;;;;4978381;28;20379;-81
2023/05/09 07:20:56;;;;;;;79.32;44.53;;;;;;;;;;4979046;28;20034;-85
2023/05/09 07:23:22;;;;;;;85.30;45.70;;;;;;;;;;4967568;28;20121;-84
2023/05/09 07:25:48;;;;;;;92.38;49.08;;;;;;;;;;4983696;28;20113;-83
2023/05/09 07:28:14;;;;;;;88.70;47.28;;;;;;;;;;4982675;28;20105;-86
2023/05/09 07:30:42;;;;;;;92.22;48.65;;;;;;;;;;4981822;28;20034;-78
2023/05/09 07:33:08;;;;;;;85.70;47.95;;;;;;;;;;4988837;28;20065;-82
2023/05/09 07:35:34;;;;;;;86.60;46.67;;;;;;;;;;4982875;28;20058;-76
2023/05/09 07:38:00;;;;;;;89.45;48.85;;;;;;;;;;4982892;28;20406;-80
2023/05/09 07:40:26;;;;;;;87.18;48.88;;;;;;;;;;4987929;28;20026;-79
2023/05/09 07:42:53;;;;;;;76.13;42.67;;;;;;;;;;4982078;28;20049;-90
2023/05/09 07:45:19;;;;;;;80.03;43.53;;;;;;;;;;4983181;28;20113;-85
2023/05/09 07:47:45;;;;;;;72.30;40.65;;;;;;;;;;4989919;28;20451;-84
2023/05/09 07:50:11;;;;;;;69.68;40.13;;;;;;;;;;4991857;28;20034;-88
2023/05/09 07:52:37;;;;;;;69.13;39.75;;;;;;;;;;4989367;28;20057;-86
2023/05/09 07:55:03;;;;;;;70.45;40.65;;;;;;;;;;4984461;28;20038;-86
2023/05/09 07:57:30;;;;;;;65.35;38.65;;;;;;;;;;4993525;28;20049;-84
2023/05/09 07:59:56;;;;;;;65.35;36.58;;;;;;;;;;4989838;28;20514;-85
2023/05/09 08:02:22;;;;;;;63.55;37.33;;;;;;;;;;4996898;28;20070;-85
2023/05/09 08:04:48;;;;;;;62.67;36.92;;;;;;;;;;4991042;28;20027;-83
2023/05/09 08:07:14;;;;;;;55.05;33.47;;;;;;;;;;4970642;28;20049;-86
2023/05/09 08:09:40;;;;;;;55.92;34.10;;;;;;;;;;4983519;28;20022;-87
2023/05/09 08:12:06;;;;;;;55.15;33.85;;;;;;;;;;4985786;28;20048;-86
2023/05/09 08:14:32;;;;;;;75.60;48.05;;;;;;;;;;4982698;28;20097;-81
2023/05/09 08:16:58;;;;;;;46.45;28.08;;;;;;;;;;4990030;28;20034;-85
2023/05/09 08:19:25;;;;;;;42.63;24.98;;;;;;;;;;4991643;28;20034;-87
2023/05/09 08:21:51;;;;;;;38.28;23.40;;;;;;;;;;4980016;28;20483;-83
2023/05/09 08:24:17;;;;;;;40.95;25.08;;;;;;;;;;4962058;28;20270;-80
2023/05/09 08:26:43;;;;;;;37.25;24.02;;;;;;;;;;4984480;28;20039;-85
2023/05/09 08:29:10;;;;;;;32.03;21.00;;;;;;;;;;4969183;28;20037;-83
2023/05/09 08:31:36;;;;;;;35.45;20.33;;;;;;;;;;4992157;28;20033;-82
2023/05/09 08:34:02;;;;;;;35.30;20.75;;;;;;;;;;4990869;28;20026;-86
2023/05/09 08:36:28;;;;;;;30.80;19.20;;;;;;;;;;4964171;28;21390;-83
2023/05/09 08:38:54;;;;;;;34.92;18.38;;;;;;;;;;4952107;28;20093;-82
2023/05/09 08:41:22;;;;;;;29.05;18.10;;;;;;;;;;4970188;28;20408;-84
2023/05/09 08:43:48;;;;;;;27.63;17.88;;;;;;;;;;4971686;28;20527;-86
2023/05/09 08:46:15;;;;;;;30.35;17.50;;;;;;;;;;4955033;28;20097;-85
2023/05/09 08:48:42;;;;;;;25.23;16.08;;;;;;;;;;4962370;28;20090;-84
2023/05/09 08:51:10;;;;;;;28.50;15.90;;;;;;;;;;4967629;28;20023;-84
2023/05/09 08:53:36;;;;;;;24.08;15.55;;;;;;;;;;4963210;28;20690;-86
2023/05/09 08:56:03;;;;;;;24.63;16.67;;;;;;;;;;4968443;28;20093;-78
2023/05/09 08:58:30;;;;;;;26.85;17.48;;;;;;;;;;4968489;28;20039;-85
2023/05/09 09:00:56;;;;;;;28.92;16.90;;;;;;;;;;4973310;28;20451;-87
2023/05/09 09:03:25;;;;;;;26.02;16.75;;;;;;;;;;4945962;28;20138;-82
2023/05/09 09:05:51;;;;;;;28.48;16.88;;;;;;;;;;4966099;28;20027;-87
2023/05/09 09:08:18;;;;;;;25.35;16.80;;;;;;;;;;4969269;28;20295;-89
2023/05/09 09:10:47;;;;;;;24.70;15.75;;;;;;;;;;4966257;28;20058;-81
2023/05/09 09:13:15;;;;;;;25.05;14.93;;;;;;;;;;4976197;28;20077;-86
2023/05/09 09:15:42;;;;;;;40.50;25.67;;;;;;;;;;4967137;28;20564;-81
2023/05/09 09:18:09;;;;;;;25.80;16.05;;;;;;;;;;4971764;28;20027;-85
2023/05/09 09:20:41;;;;;;;23.13;16.63;;;;;;;;;;4969077;28;20027;-94
2023/05/09 09:23:11;;;;;;;31.80;16.25;;;;;;;;;;4971661;28;20384;-89
2023/05/09 09:25:37;;;;;;;24.17;15.85;;;;;;;;;;4968534;28;20400;-81
2023/05/09 09:28:04;;;;;;;23.20;15.40;;;;;;;;;;4972682;28;20034;-90
2023/05/09 09:30:30;;;;;;;29.58;16.73;;;;;;;;;;4962482;28;20113;-87
2023/05/09 09:32:59;;;;;;;28.02;16.70;;;;;;;;;;4965973;28;20169;-81
2023/05/09 09:35:25;;;;;;;27.63;16.58;;;;;;;;;;4948536;28;20354;-85
2023/05/09 09:37:56;;;;;;;28.67;16.85;;;;;;;;;;4986648;28;20066;-84
2023/05/09 09:40:23;;;;;;;24.90;15.18;;;;;;;;;;4972511;28;20026;-85
2023/05/09 09:42:51;;;;;;;26.92;15.23;;;;;;;;;;4987647;28;20037;-84
2023/05/09 09:45:18;;;;;;;26.58;15.15;;;;;;;;;;4974216;28;20033;-85
2023/05/09 09:47:45;;;;;;;29.65;16.98;;;;;;;;;;4989655;28;20105;-86
2023/05/09 09:50:16;;;;;;;25.52;17.52;;;;;;;;;;4987431;28;20044;-90
2023/05/09 09:52:51;;;;;;;24.60;16.08;;;;;;;;;;4990091;28;20042;-87
2023/05/09 09:55:18;;;;;;;26.70;16.15;;;;;;;;;;4984520;28;20230;-87
2023/05/09 09:57:47;;;;;;;22.08;15.00;;;;;;;;;;4983700;28;20078;-86
2023/05/09 10:00:14;;;;;;;24.25;16.20;;;;;;;;;;4991418;28;20030;-90
2023/05/09 10:02:48;;;;;;;27.60;15.80;;;;;;;;;;4974322;28;20510;-86
2023/05/09 10:05:24;;;;;;;28.25;15.32;;;;;;;;;;4987911;28;20525;-87
2023/05/09 10:07:55;;;;;;;25.95;15.60;;;;;;;;;;4989113;28;20467;-88
2023/05/09 10:10:22;;;;;;;30.60;16.20;;;;;;;;;;4980559;28;20031;-86
2023/05/09 10:12:49;;;;;;;25.42;15.57;;;;;;;;;;4998660;28;20042;-89
2023/05/09 10:15:20;;;;;;;25.77;16.52;;;;;;;;;;4985873;28;20590;-87
2023/05/09 10:17:47;;;;;;;20.85;15.07;;;;;;;;;;4991083;28;20034;-87
2023/05/09 10:20:14;;;;;;;23.02;15.65;;;;;;;;;;4971857;28;20113;-81
2023/05/09 10:22:40;;;;;;;24.83;16.50;;;;;;;;;;4988279;28;20041;-85
2023/05/09 10:25:12;;;;;;;20.60;15.35;;;;;;;;;;4971850;28;20089;-88
2023/05/09 10:27:40;;;;;;;23.17;15.70;;;;;;;;;;4988595;28;20057;-87
2023/05/09 10:30:09;;;;;;;22.80;15.70;;;;;;;;;;4993151;28;20030;-87
2023/05/09 10:32:49;;;;;;;23.23;15.02;;;;;;;;;;4975955;28;20043;-86
2023/05/09 10:35:16;;;;;;;21.95;14.82;;;;;;;;;;4981344;28;20084;-79
2023/05/09 10:37:43;;;;;;;26.92;15.73;;;;;;;;;;4972208;28;20058;-81
2023/05/09 10:40:14;;;;;;;24.40;15.35;;;;;;;;;;4976203;28;20022;-85
2023/05/09 10:42:43;;;;;;;20.50;16.52;;;;;;;;;;4977640;28;20121;-80
2023/05/09 10:45:12;;;;;;;22.90;16.08;;;;;;;;;;4961696;28;20419;-81
2023/05/09 10:47:39;;;;;;;24.40;14.88;;;;;;;;;;4959267;28;20114;-82
2023/05/09 10:50:09;;;;;;;24.42;15.02;;;;;;;;;;4974674;28;20041;-82
2023/05/09 10:52:55;;;;;;;28.65;17.65;;;;;;;;;;4982818;28;20034;-83
2023/05/09 10:55:21;;;;;;;25.02;18.30;;;;;;;;;;4984460;28;20039;-86
2023/05/09 10:57:53;;;;;;;20.92;14.32;;;;;;;;;;4967627;28;20257;-80
2023/05/09 11:00:24;;;;;;;20.35;14.13;;;;;;;;;;4976042;28;20021;-80
2023/05/09 11:03:08;;;;;;;27.73;14.50;;;;;;;;;;4967615;28;20030;-86
2023/05/09 11:05:41;;;;;;;23.27;14.15;;;;;;;;;;4976943;28;20037;-83
2023/05/09 11:08:23;;;;;;;22.00;15.10;;;;;;;;;;4964204;28;20538;-85
2023/05/09 11:10:50;;;;;;;22.15;14.32;;;;;;;;;;4976718;28;20057;-82
2023/05/09 11:13:22;;;;;;;22.70;15.13;;;;;;;;;;4963360;28;20038;-81
2023/05/09 11:15:48;;;;;;;;;;;;;;;;;;4981111;28;20093;-83
2023/05/09 11:18:14;;;;;;;19.80;14.32;;;;;;;;;;4979722;28;19968;-81
2023/05/09 11:20:44;;;;;;;134.63;89.45;;;;;;;;;;4982228;28;20023;-81
2023/05/09 11:23:16;;;;;;;118.15;78.85;;;;;;;;;;4960632;28;20117;-83
2023/05/09 11:25:42;;;;;;;23.00;15.23;;;;;;;;;;4980434;28;20042;-86
2023/05/09 11:28:09;;;;;;;21.13;14.23;;;;;;;;;;4983475;28;20090;-86
2023/05/09 11:30:38;;;;;;;21.75;15.27;;;;;;;;;;4964372;28;20483;-81
2023/05/09 11:33:05;;;;;;;22.58;14.90;;;;;;;;;;4978192;28;20467;-84
2023/05/09 11:35:32;;;;;;;19.10;13.77;;;;;;;;;;4981587;28;20125;-82
2023/05/09 11:38:03;;;;;;;21.80;14.88;;;;;;;;;;4985319;28;20042;-82
2023/05/09 11:40:30;;;;;;;25.65;15.52;;;;;;;;;;4988632;28;20033;-81
2023/05/09 11:42:57;;;;;;;21.88;15.52;;;;;;;;;;4970726;28;20030;-83
2023/05/09 11:45:23;;;;;;;21.85;15.68;;;;;;;;;;4988613;28;20034;-82
2023/05/09 11:47:50;;;;;;;24.42;16.20;;;;;;;;;;4988145;28;20027;-80
2023/05/09 11:50:18;;;;;;;27.08;17.20;;;;;;;;;;4988848;28;20380;-81
2023/05/09 11:52:45;;;;;;;22.58;17.00;;;;;;;;;;4987515;28;20023;-81
2023/05/09 11:55:13;;;;;;;26.95;18.15;;;;;;;;;;4985778;28;20066;-82
2023/05/09 11:57:40;;;;;;;26.77;17.50;;;;;;;;;;4968532;28;20292;-81
2023/05/09 12:00:08;;;;;;;25.67;17.30;;;;;;;;;;4969924;28;20018;-81
2023/05/09 12:02:34;;;;;;;25.30;18.67;;;;;;;;;;4989389;28;20117;-81
2023/05/09 12:05:10;;;;;;;32.92;18.17;;;;;;;;;;4988060;28;20484;-82
2023/05/09 12:07:38;;;;;;;26.25;18.17;;;;;;;;;;4987686;28;20073;-79
2023/05/09 12:10:14;;;;;;;26.92;18.65;;;;;;;;;;4988348;28;20030;-80
2023/05/09 12:12:47;;;;;;;25.20;18.00;;;;;;;;;;4984319;28;20057;-80
2023/05/09 12:15:13;;;;;;;35.95;19.10;;;;;;;;;;4992307;28;20045;-80
2023/05/09 12:17:40;;;;;;;29.30;18.50;;;;;;;;;;4991880;28;20113;-79
2023/05/09 12:20:07;;;;;;;22.77;17.60;;;;;;;;;;4991176;28;20015;-81
2023/05/09 12:22:33;;;;;;;25.55;18.13;;;;;;;;;;4991495;28;22438;-80
2023/05/09 12:25:01;;;;;;;26.08;18.42;;;;;;;;;;4993541;28;20022;-81
2023/05/09 12:27:27;;;;;;;23.17;17.25;;;;;;;;;;4965025;28;20035;-82
2023/05/09 12:29:53;;;;;;;24.58;17.13;;;;;;;;;;4980537;28;20027;-81
2023/05/09 12:32:20;;;;;;;22.83;16.50;;;;;;;;;;4988154;28;20030;-81
2023/05/09 12:34:50;;;;;;;18.55;16.20;;;;;;;;;;4991547;28;20114;-80
2023/05/09 12:37:17;;;;;;;21.17;15.35;;;;;;;;;;4989547;28;20038;-80
2023/05/09 12:40:03;;;;;;;18.38;15.63;;;;;;;;;;4989695;28;20022;-81
2023/05/09 12:42:30;;;;;;;19.85;15.15;;;;;;;;;;4986204;28;20491;-81
2023/05/09 12:44:56;;;;;;;15.45;12.95;;;;;;;;;;4988602;28;20113;-81
2023/05/09 12:47:26;;;;;;;18.35;12.10;;;;;;;;;;4991487;28;20403;-81
2023/05/09 12:49:52;;;;;;;16.25;11.52;;;;;;;;;;4988916;28;20266;-80
2023/05/09 12:52:19;;;;;;;14.20;10.48;;;;;;;;;;4990522;28;20427;-80
2023/05/09 12:54:46;;;;;;;13.93;10.98;;;;;;;;;;4989860;28;20058;-81
2023/05/09 12:57:21;;;;;;;14.27;11.27;;;;;;;;;;4966952;28;20030;-82
2023/05/09 12:59:47;;;;;;;12.13;10.73;;;;;;;;;;4987607;28;20018;-81
2023/05/09 13:02:13;;;;;;;14.55;11.32;;;;;;;;;;4987070;28;20049;-81
2023/05/09 13:04:40;;;;;;;13.30;10.77;;;;;;;;;;4991876;28;20092;-81
2023/05/09 13:07:09;;;;;;;12.95;10.75;;;;;;;;;;4973465;28;20026;-81
2023/05/09 13:09:35;;;;;;;13.82;10.75;;;;;;;;;;4976376;28;20279;-81
2023/05/09 13:12:08;;;;;;;11.45;9.93;;;;;;;;;;4988570;28;20034;-82
2023/05/09 13:14:34;;;;;;;9.77;8.55;;;;;;;;;;4991542;28;20105;-81
2023/05/09 13:17:00;;;;;;;8.70;7.75;;;;;;;;;;4988810;28;20045;-83
2023/05/09 13:19:26;;;;;;;10.63;8.93;;;;;;;;;;4996725;28;20025;-80
2023/05/09 13:21:54;;;;;;;9.25;8.27;;;;;;;;;;4990662;28;20031;-82
2023/05/09 13:24:20;;;;;;;9.48;8.07;;;;;;;;;;4989339;28;20455;-82
2023/05/09 13:26:46;;;;;;;12.55;8.93;;;;;;;;;;4973376;28;20038;-81
2023/05/09 13:29:12;;;;;;;9.88;7.43;;;;;;;;;;4987765;28;20034;-82
2023/05/09 13:31:38;;;;;;;10.15;6.68;;;;;;;;;;4978553;28;20068;-80
2023/05/09 13:34:04;;;;;;;7.68;6.25;;;;;;;;;;4988927;28;20033;-81
2023/05/09 13:36:31;;;;;;;9.45;6.07;;;;;;;;;;4988175;28;20133;-81
2023/05/09 13:38:57;;;;;;;5.75;4.97;;;;;;;;;;4989575;28;20033;-81
2023/05/09 13:41:23;;;;;;;6.43;4.75;;;;;;;;;;4988362;28;20033;-81
2023/05/09 13:43:49;;;;;;;5.65;5.03;;;;;;;;;;4988083;28;20034;-81
2023/05/09 13:46:15;;;;;;;6.80;4.57;;;;;;;;;;4988713;28;20025;-82
2023/05/09 13:48:41;;;;;;;5.88;4.05;;;;;;;;;;4986578;28;20034;-81
2023/05/09 13:51:08;;;;;;;5.65;4.43;;;;;;;;;;4973598;28;20046;-82
2023/05/09 13:53:34;;;;;;;6.50;4.32;;;;;;;;;;4988559;28;20046;-81
2023/05/09 13:56:00;;;;;;;4.57;4.18;;;;;;;;;;4983213;28;20027;-83
2023/05/09 13:58:26;;;;;;;7.07;4.93;;;;;;;;;;4961963;28;20048;-82
2023/05/09 14:00:52;;;;;;;5.20;4.35;;;;;;;;;;4975224;28;20073;-81
2023/05/09 14:03:18;;;;;;;5.47;4.93;;;;;;;;;;4986231;28;20480;-81
2023/05/09 14:05:44;;;;;;;4.88;4.43;;;;;;;;;;4989441;28;20101;-82
2023/05/09 14:08:11;;;;;;;4.40;4.00;;;;;;;;;;4980846;28;20030;-82
2023/05/09 14:10:37;;;;;;;4.65;4.20;;;;;;;;;;4989456;28;20384;-82
2023/05/09 14:13:03;;;;;;;5.20;4.40;;;;;;;;;;4978604;28;20041;-82
2023/05/09 14:15:29;;;;;;;5.88;4.20;;;;;;;;;;4978774;28;20022;-83
2023/05/09 14:17:55;;;;;;;3.97;3.58;;;;;;;;;;4972348;28;20038;-81